Time;durP1;ratioP1;P1;durP2;ratioP2;P2;SDS_P1;SDS_P2;PMS_P1;PMS_P2;Temp;Humidity;BMP_temperature;BMP_pressure;BME280_temperature;BME280_humidity;BME280_pressure;Samples;Min_cycle;Max_cycle;Signal;HPM_P1;HPM_P2
2022/11/20 06:00:26;;;;;;;4.10;3.57;;;7.20;97.20;;;;;;1713583;28;20181;-69
2022/11/20 06:01:19;;;;;;;3.38;3.17;;;7.10;97.20;;;;;;1713537;28;20686;-70
2022/11/20 06:02:11;;;;;;;3.35;3.05;;;7.10;97.20;;;;;;1713914;28;20236;-70
2022/11/20 06:03:02;;;;;;;3.80;3.40;;;7.20;97.20;;;;;;1713821;28;20223;-69
2022/11/20 06:03:54;;;;;;;3.97;3.57;;;7.20;97.20;;;;;;1713623;28;20293;-69
2022/11/20 06:04:45;;;;;;;3.17;2.88;;;7.20;97.20;;;;;;1713843;28;20448;-70
2022/11/20 06:05:36;;;;;;;3.20;3.00;;;7.20;97.20;;;;;;1714079;28;20212;-69
2022/11/20 06:06:28;;;;;;;6.10;3.53;;;7.20;97.20;;;;;;1713814;28;20892;-69
2022/11/20 06:07:18;;;;;;;3.20;2.90;;;7.10;97.20;;;;;;1713642;28;20210;-69
2022/11/20 06:08:09;;;;;;;4.27;3.87;;;7.20;97.20;;;;;;1713916;28;20206;-69
2022/11/20 06:09:01;;;;;;;4.97;3.10;;;7.20;97.20;;;;;;1713439;28;20664;-69
2022/11/20 06:09:51;;;;;;;3.97;3.35;;;7.10;97.20;;;;;;1713486;28;20236;-69
2022/11/20 06:10:43;;;;;;;3.93;3.40;;;7.20;97.20;;;;;;1713414;28;20236;-69
2022/11/20 06:11:34;;;;;;;4.30;3.50;;;7.20;97.20;;;;;;1713858;28;20879;-69
2022/11/20 06:12:26;;;;;;;3.40;3.10;;;7.20;97.20;;;;;;1713683;28;20219;-69
2022/11/20 06:13:16;;;;;;;3.85;3.55;;;7.20;97.20;;;;;;1712614;28;20210;-69
2022/11/20 06:14:08;;;;;;;3.83;3.53;;;7.20;97.20;;;;;;1713869;28;20208;-69
2022/11/20 06:14:59;;;;;;;3.97;3.13;;;7.10;97.20;;;;;;1713801;28;20218;-69
2022/11/20 06:15:53;;;;;;;3.60;3.30;;;7.10;97.20;;;;;;1713868;28;20280;-70
2022/11/20 06:16:43;;;;;;;3.22;3.03;;;7.10;97.20;;;;;;1713610;28;20229;-69
2022/11/20 06:17:35;;;;;;;3.43;3.13;;;7.10;97.20;;;;;;1713859;28;20198;-69
2022/11/20 06:18:27;;;;;;;3.60;3.30;;;7.20;97.20;;;;;;1713263;28;20813;-70
2022/11/20 06:19:19;;;;;;;3.40;3.15;;;7.20;97.20;;;;;;1713813;28;20209;-69
2022/11/20 06:20:10;;;;;;;5.38;3.50;;;7.20;97.20;;;;;;1713811;28;20579;-69
2022/11/20 06:21:03;;;;;;;3.17;2.85;;;7.20;97.20;;;;;;1713805;28;20198;-69
2022/11/20 06:21:54;;;;;;;4.22;3.40;;;7.20;97.20;;;;;;1713510;28;20205;-69
2022/11/20 06:22:45;;;;;;;3.40;3.10;;;7.20;97.20;;;;;;1713878;28;20202;-69
2022/11/20 06:23:37;;;;;;;3.75;3.45;;;7.20;97.20;;;;;;1713706;28;20205;-69
2022/11/20 06:24:28;;;;;;;3.53;3.22;;;7.20;97.20;;;;;;1713838;28;20281;-69
2022/11/20 06:25:19;;;;;;;3.40;3.20;;;7.20;97.20;;;;;;1713407;28;20206;-69
2022/11/20 06:26:13;;;;;;;3.90;3.40;;;7.20;97.20;;;;;;1713894;28;20198;-69
2022/11/20 06:27:04;;;;;;;3.55;3.20;;;7.20;97.20;;;;;;1713496;28;20202;-69
2022/11/20 06:27:56;;;;;;;3.77;3.47;;;7.20;97.20;;;;;;1713804;28;20216;-69
2022/11/20 06:28:47;;;;;;;3.15;2.95;;;7.20;97.20;;;;;;1713196;28;20205;-69
2022/11/20 06:29:39;;;;;;;3.20;3.00;;;7.20;97.20;;;;;;1713715;28;20225;-69
2022/11/20 06:30:30;;;;;;;3.58;3.30;;;7.20;97.20;;;;;;1713585;28;20586;-70
2022/11/20 06:31:25;;;;;;;3.23;2.83;;;7.20;97.20;;;;;;1713585;28;20584;-69
2022/11/20 06:32:16;;;;;;;3.55;3.25;;;7.20;97.20;;;;;;1713677;28;20248;-69
2022/11/20 06:33:08;;;;;;;3.17;2.97;;;7.20;97.20;;;;;;1713489;28;20209;-69
2022/11/20 06:33:58;;;;;;;4.55;3.60;;;7.20;97.20;;;;;;1713654;28;20205;-69
2022/11/20 06:34:50;;;;;;;4.27;3.87;;;7.20;97.20;;;;;;1713813;28;20652;-69
2022/11/20 06:35:41;;;;;;;3.65;3.35;;;7.20;97.20;;;;;;1713637;28;20201;-69
2022/11/20 06:36:33;;;;;;;3.73;3.43;;;7.20;97.20;;;;;;1713741;28;20209;-68
2022/11/20 06:37:24;;;;;;;3.72;3.42;;;7.20;97.20;;;;;;1713623;28;20687;-68
2022/11/20 06:38:16;;;;;;;4.00;3.40;;;7.20;97.20;;;;;;1713643;28;20660;-69
2022/11/20 06:39:06;;;;;;;3.40;3.10;;;7.20;97.20;;;;;;1713271;28;20616;-68
2022/11/20 06:39:58;;;;;;;3.47;3.17;;;7.20;97.20;;;;;;1713493;28;20202;-68
2022/11/20 06:40:49;;;;;;;3.50;3.20;;;7.20;97.20;;;;;;1713706;28;20224;-70
2022/11/20 06:41:40;;;;;;;2.93;2.73;;;7.20;97.20;;;;;;1713700;28;20193;-70
2022/11/20 06:42:32;;;;;;;3.10;2.90;;;7.20;97.20;;;;;;1711013;28;20209;-69
2022/11/20 06:43:24;;;;;;;4.28;3.10;;;7.20;97.20;;;;;;1711278;28;20273;-69
2022/11/20 06:44:15;;;;;;;3.33;3.13;;;7.20;97.20;;;;;;1713584;28;20217;-69
2022/11/20 06:45:08;;;;;;;4.10;3.63;;;7.20;97.20;;;;;;1713419;28;20297;-69
2022/11/20 06:45:59;;;;;;;3.35;3.00;;;7.20;97.20;;;;;;1713569;28;20217;-69
2022/11/20 06:46:52;;;;;;;3.40;3.10;;;7.20;97.20;;;;;;1713466;28;20198;-69
2022/11/20 06:47:42;;;;;;;3.45;3.25;;;7.20;97.20;;;;;;1709571;28;20653;-69
2022/11/20 06:48:34;;;;;;;3.30;3.00;;;7.20;97.20;;;;;;1706534;29;20660;-69
2022/11/20 06:49:25;;;;;;;5.03;3.13;;;7.20;97.20;;;;;;1710452;28;20201;-69
2022/11/20 06:50:17;;;;;;;3.50;3.28;;;7.20;97.20;;;;;;1713169;28;20290;-69
2022/11/20 06:51:08;;;;;;;3.85;3.00;;;7.20;97.20;;;;;;1713669;28;20209;-69
2022/11/20 06:52:00;;;;;;;3.45;3.15;;;7.20;97.20;;;;;;1713529;28;20730;-69
2022/11/20 06:52:51;;;;;;;3.63;3.15;;;7.20;97.20;;;;;;1713547;28;20205;-69
2022/11/20 06:53:42;;;;;;;3.53;3.23;;;7.20;97.20;;;;;;1713550;28;20212;-68
2022/11/20 06:54:33;;;;;;;3.88;3.58;;;7.20;97.20;;;;;;1713431;28;20216;-69
2022/11/20 06:55:27;;;;;;;3.30;3.10;;;7.30;97.20;;;;;;1713673;28;20225;-68
2022/11/20 06:56:17;;;;;;;3.78;3.47;;;7.30;97.20;;;;;;1713468;28;20252;-69
2022/11/20 06:57:09;;;;;;;3.13;2.87;;;7.30;97.20;;;;;;1712993;28;20272;-69
2022/11/20 06:58:00;;;;;;;3.50;3.20;;;7.30;97.20;;;;;;1714258;28;20208;-69
2022/11/20 06:58:51;;;;;;;3.27;2.97;;;7.30;97.20;;;;;;1714512;28;20678;-69
2022/11/20 06:59:42;;;;;;;3.22;3.03;;;7.30;97.20;;;;;;1714666;28;20194;-69
2022/11/20 07:00:34;;;;;;;3.13;2.83;;;7.30;97.20;;;;;;1714951;28;20440;-69
2022/11/20 07:01:24;;;;;;;3.95;3.47;;;7.30;97.20;;;;;;1714844;28;20216;-69
2022/11/20 07:02:17;;;;;;;3.70;3.27;;;7.30;97.20;;;;;;1714988;28;20225;-69
2022/11/20 07:03:09;;;;;;;4.40;3.20;;;7.30;97.20;;;;;;1715044;28;20202;-69
2022/11/20 07:04:01;;;;;;;3.85;3.45;;;7.30;97.20;;;;;;1714961;28;20244;-69
2022/11/20 07:04:52;;;;;;;3.95;3.40;;;7.30;97.20;;;;;;1714983;28;20782;-69
2022/11/20 07:05:45;;;;;;;3.00;2.80;;;7.30;97.20;;;;;;1714969;28;20678;-70
2022/11/20 07:06:36;;;;;;;5.97;3.42;;;7.30;97.20;;;;;;1714728;28;20544;-69
2022/11/20 07:07:28;;;;;;;2.90;2.70;;;7.30;97.20;;;;;;1714839;28;20209;-69
2022/11/20 07:08:18;;;;;;;4.07;3.78;;;7.20;97.20;;;;;;1714843;28;20206;-69
2022/11/20 07:09:10;;;;;;;3.13;2.93;;;7.20;97.20;;;;;;1714461;28;20201;-69
2022/11/20 07:10:01;;;;;;;3.78;3.42;;;7.20;97.20;;;;;;1714604;28;20206;-69
2022/11/20 07:10:53;;;;;;;3.00;2.80;;;7.20;97.20;;;;;;1714785;28;20230;-69
2022/11/20 07:11:43;;;;;;;2.90;2.70;;;7.20;97.20;;;;;;1712224;28;20256;-68
2022/11/20 07:12:35;;;;;;;3.30;3.00;;;7.20;97.20;;;;;;1713810;28;20206;-68
2022/11/20 07:13:26;;;;;;;3.05;2.85;;;7.20;97.20;;;;;;1710111;28;20201;-68
2022/11/20 07:14:18;;;;;;;3.55;3.25;;;7.20;97.20;;;;;;1709293;28;20214;-68
2022/11/20 07:15:09;;;;;;;5.07;3.33;;;7.20;97.20;;;;;;1714927;28;20691;-69
2022/11/20 07:16:02;;;;;;;3.40;3.10;;;7.30;97.20;;;;;;1714618;28;20573;-69
2022/11/20 07:16:53;;;;;;;3.70;3.40;;;7.30;97.20;;;;;;1714466;28;20453;-68
2022/11/20 07:17:46;;;;;;;3.40;3.20;;;7.30;97.20;;;;;;1714279;28;20495;-69
2022/11/20 07:18:37;;;;;;;3.60;3.22;;;7.30;97.20;;;;;;1714101;28;20197;-69
2022/11/20 07:19:28;;;;;;;3.07;2.87;;;7.30;97.20;;;;;;1714823;28;20204;-69
2022/11/20 07:20:19;;;;;;;3.70;3.42;;;7.30;97.20;;;;;;1714472;28;20441;-69
2022/11/20 07:21:11;;;;;;;4.20;2.70;;;7.30;97.20;;;;;;1714908;28;20208;-68
2022/11/20 07:22:02;;;;;;;3.75;3.25;;;7.40;97.20;;;;;;1714599;28;20209;-68
2022/11/20 07:22:55;;;;;;;4.10;2.90;;;7.40;97.20;;;;;;1713473;28;20483;-69
2022/11/20 07:23:46;;;;;;;3.45;3.15;;;7.40;97.20;;;;;;1714785;28;20463;-69
2022/11/20 07:24:38;;;;;;;3.30;3.10;;;7.40;97.20;;;;;;1714708;28;20194;-69
2022/11/20 07:25:30;;;;;;;3.30;3.00;;;7.30;97.20;;;;;;1714731;28;20441;-69
2022/11/20 07:26:22;;;;;;;3.80;3.00;;;7.30;97.20;;;;;;1714708;28;20638;-68
2022/11/20 07:27:12;;;;;;;3.35;3.05;;;7.30;97.20;;;;;;1714033;28;20202;-70
2022/11/20 07:28:04;;;;;;;3.30;3.07;;;7.30;97.20;;;;;;1714255;28;20297;-70
2022/11/20 07:28:55;;;;;;;3.30;3.05;;;7.30;97.20;;;;;;1714033;28;20206;-70
2022/11/20 07:29:47;;;;;;;2.83;2.63;;;7.30;97.20;;;;;;1714584;28;20205;-70
2022/11/20 07:30:37;;;;;;;4.22;3.40;;;7.30;97.20;;;;;;1714474;28;20234;-69
2022/11/20 07:31:29;;;;;;;5.40;3.90;;;7.30;97.20;;;;;;1714697;28;20198;-70
2022/11/20 07:32:20;;;;;;;4.00;3.53;;;7.30;97.20;;;;;;1714586;28;20213;-69
2022/11/20 07:33:13;;;;;;;3.40;3.07;;;7.30;97.20;;;;;;1714920;28;20205;-69
2022/11/20 07:34:03;;;;;;;3.40;3.10;;;7.30;97.20;;;;;;1714771;28;20206;-68
2022/11/20 07:34:55;;;;;;;3.57;3.27;;;7.30;97.20;;;;;;1714546;28;20206;-69
2022/11/20 07:35:46;;;;;;;4.20;3.05;;;7.30;97.20;;;;;;1714145;28;20795;-69
2022/11/20 07:36:38;;;;;;;3.17;2.80;;;7.30;97.20;;;;;;1714150;28;20560;-69
2022/11/20 07:37:29;;;;;;;3.15;2.85;;;7.30;97.20;;;;;;1714654;28;20260;-69
2022/11/20 07:38:21;;;;;;;3.87;3.03;;;7.30;97.20;;;;;;1714631;28;20229;-69
2022/11/20 07:39:12;;;;;;;5.00;3.05;;;7.30;97.20;;;;;;1714522;28;21056;-69
2022/11/20 07:40:04;;;;;;;3.07;2.77;;;7.30;97.20;;;;;;1714495;28;20576;-69
2022/11/20 07:40:55;;;;;;;4.22;2.90;;;7.30;97.20;;;;;;1714291;28;20237;-69
2022/11/20 07:41:47;;;;;;;3.08;2.85;;;7.30;97.20;;;;;;1714881;28;20568;-69
2022/11/20 07:42:37;;;;;;;2.97;2.65;;;7.30;97.20;;;;;;1714686;28;20202;-69
2022/11/20 07:43:29;;;;;;;3.20;2.87;;;7.30;97.20;;;;;;1714748;28;20202;-69
2022/11/20 07:44:20;;;;;;;3.33;3.03;;;7.30;97.20;;;;;;1714660;28;20213;-69
2022/11/20 07:45:12;;;;;;;2.90;2.60;;;7.30;97.20;;;;;;1714883;28;20212;-69
2022/11/20 07:46:03;;;;;;;3.83;3.10;;;7.30;97.20;;;;;;1714433;28;20217;-69
2022/11/20 07:46:55;;;;;;;3.20;3.00;;;7.30;97.20;;;;;;1714467;28;20202;-69
2022/11/20 07:47:46;;;;;;;3.13;2.83;;;7.30;97.20;;;;;;1714604;28;20209;-69
2022/11/20 07:48:39;;;;;;;3.50;3.20;;;7.30;97.20;;;;;;1714135;28;20204;-69
2022/11/20 07:49:30;;;;;;;2.40;2.20;;;7.40;97.20;;;;;;1714682;28;20456;-69
2022/11/20 07:50:21;;;;;;;2.80;2.60;;;7.40;97.20;;;;;;1714437;28;20198;-69
2022/11/20 07:51:13;;;;;;;3.90;3.55;;;7.40;97.20;;;;;;1714639;28;20209;-69
2022/11/20 07:52:05;;;;;;;3.20;2.90;;;7.40;97.20;;;;;;1714594;28;20309;-69
2022/11/20 07:53:01;;;;;;;3.35;3.10;;;7.40;97.20;;;;;;1714556;28;20210;-69
2022/11/20 07:53:53;;;;;;;3.20;2.90;;;7.40;97.20;;;;;;1714798;28;20190;-69
2022/11/20 07:54:43;;;;;;;3.13;2.83;;;7.40;97.20;;;;;;1714608;28;20586;-68
2022/11/20 07:55:35;;;;;;;2.67;2.47;;;7.50;97.20;;;;;;1714652;28;20227;-69
2022/11/20 07:56:26;;;;;;;2.80;2.58;;;7.50;97.20;;;;;;1714606;28;20707;-69
2022/11/20 07:57:18;;;;;;;2.70;2.50;;;7.50;97.20;;;;;;1714055;28;20726;-68
2022/11/20 07:58:09;;;;;;;2.85;2.63;;;7.60;97.20;;;;;;1714662;28;20206;-69
2022/11/20 07:59:00;;;;;;;3.43;2.87;;;7.60;97.20;;;;;;1713961;28;20202;-69
2022/11/20 07:59:51;;;;;;;2.85;2.65;;;7.60;97.20;;;;;;1714479;28;20206;-68
2022/11/20 08:00:43;;;;;;;3.30;2.70;;;7.60;97.20;;;;;;1714416;28;20213;-68
2022/11/20 08:01:34;;;;;;;2.78;2.55;;;7.60;97.20;;;;;;1714623;28;20202;-68
2022/11/20 08:02:25;;;;;;;2.93;2.73;;;7.60;97.20;;;;;;1714520;28;20686;-68
2022/11/20 08:03:16;;;;;;;2.60;2.45;;;7.60;97.20;;;;;;1714537;28;20963;-68
2022/11/20 08:04:10;;;;;;;2.90;2.63;;;7.70;97.20;;;;;;1714673;28;20593;-69
2022/11/20 08:05:00;;;;;;;3.00;2.80;;;7.60;97.20;;;;;;1714418;28;20209;-69
2022/11/20 08:05:52;;;;;;;2.97;2.63;;;7.60;97.20;;;;;;1714651;28;20198;-69
2022/11/20 08:06:43;;;;;;;4.38;3.03;;;7.60;97.20;;;;;;1714220;28;20225;-68
2022/11/20 08:07:38;;;;;;;3.30;3.00;;;7.60;97.20;;;;;;1714596;28;20209;-68
2022/11/20 08:08:29;;;;;;;2.60;2.40;;;7.60;97.20;;;;;;1714122;28;20656;-68
2022/11/20 08:09:21;;;;;;;3.07;2.77;;;7.60;97.20;;;;;;1713772;28;20634;-68
2022/11/20 08:10:13;;;;;;;3.05;2.75;;;7.60;97.20;;;;;;1714136;28;20209;-68
2022/11/20 08:14:37;;;;;;;4.07;3.50;;;7.60;97.20;;;;;;1714571;28;20233;-69
2022/11/20 08:15:28;;;;;;;5.22;2.90;;;7.60;97.20;;;;;;1714245;28;20198;-68
2022/11/20 08:16:21;;;;;;;3.60;2.70;;;7.60;97.20;;;;;;1714445;28;20208;-69
2022/11/20 08:17:12;;;;;;;2.90;2.70;;;7.60;97.20;;;;;;1714334;28;20638;-68
2022/11/20 08:18:05;;;;;;;3.00;2.60;;;7.60;97.20;;;;;;1714411;28;20280;-68
2022/11/20 08:18:56;;;;;;;3.50;2.92;;;7.70;97.20;;;;;;1713833;28;20206;-68
2022/11/20 08:19:49;;;;;;;3.60;2.83;;;7.70;97.20;;;;;;1714466;28;20694;-68
2022/11/20 08:20:40;;;;;;;3.17;2.88;;;7.70;97.20;;;;;;1714308;28;20482;-68
2022/11/20 08:21:32;;;;;;;2.80;2.60;;;7.70;97.20;;;;;;1714611;28;20205;-68
2022/11/20 08:22:23;;;;;;;2.92;2.63;;;7.70;97.20;;;;;;1714404;28;20672;-68
2022/11/20 08:23:14;;;;;;;2.80;2.60;;;7.70;97.20;;;;;;1714405;28;20569;-69
2022/11/20 08:24:06;;;;;;;3.75;3.03;;;7.70;97.20;;;;;;1714418;28;20449;-69
2022/11/20 08:24:58;;;;;;;2.90;2.70;;;7.70;97.20;;;;;;1714475;28;20209;-69
2022/11/20 08:25:50;;;;;;;2.97;2.50;;;7.70;97.20;;;;;;1714418;28;20660;-68
2022/11/20 08:26:41;;;;;;;2.90;2.67;;;7.70;97.20;;;;;;1714201;28;20606;-69
2022/11/20 08:27:32;;;;;;;3.33;2.67;;;7.70;97.20;;;;;;1714484;28;20210;-68
2022/11/20 08:28:24;;;;;;;3.00;2.70;;;7.70;97.20;;;;;;1713919;28;20292;-68
2022/11/20 08:29:15;;;;;;;2.70;2.50;;;7.70;97.20;;;;;;1714326;28;20472;-69
2022/11/20 08:30:08;;;;;;;2.63;2.43;;;7.70;97.20;;;;;;1713933;28;20216;-69
2022/11/20 08:31:00;;;;;;;2.70;2.50;;;7.80;97.20;;;;;;1714185;28;20229;-68
2022/11/20 08:31:51;;;;;;;3.53;2.92;;;7.80;97.20;;;;;;1714406;28;20319;-68
2022/11/20 08:32:42;;;;;;;2.42;2.22;;;7.80;97.20;;;;;;1714345;28;20202;-68
2022/11/20 08:33:34;;;;;;;3.83;2.63;;;7.80;97.20;;;;;;1713700;28;20214;-68
2022/11/20 08:34:25;;;;;;;3.65;2.92;;;7.80;97.20;;;;;;1713982;28;20209;-69
2022/11/20 08:35:18;;;;;;;4.83;2.83;;;7.80;97.20;;;;;;1714171;28;20216;-69
2022/11/20 08:36:09;;;;;;;3.05;2.75;;;7.80;97.20;;;;;;1714130;28;20209;-68
2022/11/20 08:37:02;;;;;;;2.70;2.50;;;7.80;97.20;;;;;;1714010;28;20208;-69
2022/11/20 08:37:53;;;;;;;2.80;2.60;;;7.80;97.20;;;;;;1714281;28;20454;-69
2022/11/20 08:38:48;;;;;;;2.83;2.63;;;7.80;97.20;;;;;;1713672;28;20205;-69
2022/11/20 08:39:39;;;;;;;3.10;2.80;;;7.80;97.20;;;;;;1714208;28;20205;-69
2022/11/20 08:40:31;;;;;;;2.80;2.60;;;7.80;97.20;;;;;;1714091;28;20194;-69
2022/11/20 08:41:26;;;;;;;5.43;3.00;;;7.80;97.20;;;;;;1714264;28;20213;-69
2022/11/20 08:42:18;;;;;;;2.85;2.55;;;7.80;97.20;;;;;;1714067;28;20622;-69
2022/11/20 08:43:09;;;;;;;2.40;2.20;;;7.80;97.20;;;;;;1714285;28;20206;-69
2022/11/20 08:44:02;;;;;;;2.80;2.60;;;7.80;97.20;;;;;;1714251;28;20209;-69
2022/11/20 08:44:53;;;;;;;3.25;2.67;;;7.80;97.20;;;;;;1714294;28;20229;-69
2022/11/20 08:45:44;;;;;;;2.70;2.50;;;7.80;97.20;;;;;;1714216;28;20202;-69
2022/11/20 08:46:37;;;;;;;2.80;2.60;;;7.80;97.20;;;;;;1714135;28;20209;-69
2022/11/20 08:47:29;;;;;;;2.80;2.60;;;7.80;97.20;;;;;;1714207;28;20217;-69
2022/11/20 08:48:19;;;;;;;3.00;2.08;;;7.80;97.20;;;;;;1714208;28;20214;-69
2022/11/20 08:49:13;;;;;;;2.87;2.20;;;7.80;97.20;;;;;;1713758;28;20202;-69
2022/11/20 08:50:05;;;;;;;3.08;2.78;;;7.80;97.20;;;;;;1714010;28;20220;-69
2022/11/20 08:51:00;;;;;;;2.50;2.30;;;7.80;97.20;;;;;;1714148;28;20226;-70
2022/11/20 08:51:54;;;;;;;2.63;2.42;;;7.80;97.20;;;;;;1714379;28;20596;-70
2022/11/20 08:52:45;;;;;;;2.80;2.60;;;7.80;97.20;;;;;;1714307;28;20210;-69
2022/11/20 08:53:37;;;;;;;2.60;2.40;;;7.80;97.20;;;;;;1714289;28;20284;-69
2022/11/20 08:54:28;;;;;;;3.30;2.72;;;7.80;97.20;;;;;;1714272;28;20206;-69
2022/11/20 08:55:19;;;;;;;2.90;2.70;;;7.80;97.20;;;;;;1714095;28;20213;-70
2022/11/20 08:56:11;;;;;;;2.87;2.67;;;7.80;97.20;;;;;;1714117;28;20208;-69
2022/11/20 08:57:02;;;;;;;2.70;2.50;;;7.80;97.20;;;;;;1714048;28;20205;-69
2022/11/20 08:57:54;;;;;;;3.07;2.60;;;7.80;97.20;;;;;;1714233;28;20205;-69
2022/11/20 08:58:45;;;;;;;2.90;2.53;;;7.90;97.20;;;;;;1713723;28;20575;-70
2022/11/20 08:59:36;;;;;;;2.70;2.50;;;7.90;97.20;;;;;;1714173;28;20573;-70
2022/11/20 09:00:27;;;;;;;2.60;2.40;;;7.90;97.20;;;;;;1714149;28;20862;-70
2022/11/20 09:01:19;;;;;;;5.33;2.40;;;7.90;97.20;;;;;;1714257;28;20557;-69
2022/11/20 09:02:10;;;;;;;2.55;2.35;;;7.90;97.20;;;;;;1714132;28;20213;-69
2022/11/20 09:03:02;;;;;;;2.50;2.30;;;7.90;97.20;;;;;;1714030;28;20212;-69
2022/11/20 09:03:55;;;;;;;2.40;2.20;;;7.90;97.20;;;;;;1714273;28;20665;-70
2022/11/20 09:04:46;;;;;;;2.80;2.60;;;7.90;97.20;;;;;;1714255;28;20202;-70
2022/11/20 09:05:37;;;;;;;2.65;2.45;;;7.80;97.20;;;;;;1714025;28;20267;-69
2022/11/20 09:06:30;;;;;;;3.17;2.87;;;7.80;97.20;;;;;;1714264;28;20249;-70
2022/11/20 09:07:21;;;;;;;3.03;2.53;;;7.90;97.20;;;;;;1713787;28;20217;-70
2022/11/20 09:08:12;;;;;;;2.50;2.30;;;7.90;97.20;;;;;;1714270;28;20212;-70
2022/11/20 09:09:03;;;;;;;2.47;2.28;;;7.90;97.20;;;;;;1713640;28;20362;-70
2022/11/20 09:09:55;;;;;;;2.80;1.97;;;7.90;97.20;;;;;;1713984;28;20294;-70
2022/11/20 09:10:50;;;;;;;2.20;2.00;;;8.00;97.20;;;;;;1713980;28;20229;-70
2022/11/20 09:11:42;;;;;;;2.33;2.13;;;8.00;97.20;;;;;;1714097;28;20212;-70
2022/11/20 09:12:33;;;;;;;2.25;2.00;;;8.00;97.20;;;;;;1713783;28;20245;-70
2022/11/20 09:13:25;;;;;;;2.00;1.83;;;8.00;97.20;;;;;;1714003;28;20208;-70
2022/11/20 09:14:17;;;;;;;2.10;1.90;;;8.00;97.20;;;;;;1714063;28;20210;-70
2022/11/20 09:15:09;;;;;;;1.90;1.80;;;8.00;97.20;;;;;;1714063;28;20209;-70
2022/11/20 09:16:02;;;;;;;3.85;2.00;;;8.10;97.20;;;;;;1714207;28;20543;-69
2022/11/20 09:16:53;;;;;;;2.55;1.90;;;8.10;97.20;;;;;;1714055;28;20206;-70
2022/11/20 09:17:51;;;;;;;2.43;2.10;;;8.10;97.20;;;;;;1714107;28;20205;-69
2022/11/20 09:18:42;;;;;;;2.92;1.58;;;8.10;97.20;;;;;;1713616;28;20202;-69
2022/11/20 09:19:34;;;;;;;2.10;2.00;;;8.10;97.20;;;;;;1714283;28;20221;-70
2022/11/20 09:20:25;;;;;;;2.25;1.70;;;8.10;97.20;;;;;;1713774;28;20201;-70
2022/11/20 09:21:17;;;;;;;1.50;1.40;;;8.10;97.20;;;;;;1714105;28;20206;-69
2022/11/20 09:22:09;;;;;;;2.22;1.98;;;8.10;97.20;;;;;;1714024;28;20233;-69
2022/11/20 09:23:01;;;;;;;1.60;1.40;;;8.10;97.20;;;;;;1714021;28;20209;-69
2022/11/20 09:23:52;;;;;;;2.25;1.80;;;8.10;97.20;;;;;;1714089;28;20213;-69
2022/11/20 09:24:43;;;;;;;1.63;1.47;;;8.10;97.20;;;;;;1714009;28;20201;-69
2022/11/20 09:25:34;;;;;;;1.88;1.65;;;8.10;97.20;;;;;;1714036;28;20211;-69
2022/11/20 09:26:26;;;;;;;2.00;1.50;;;8.10;97.20;;;;;;1714132;28;20212;-69
2022/11/20 09:27:20;;;;;;;1.40;1.30;;;8.10;97.20;;;;;;1713787;28;20595;-70
2022/11/20 09:28:12;;;;;;;1.58;1.48;;;8.10;97.20;;;;;;1714000;28;20659;-70
2022/11/20 09:29:02;;;;;;;1.33;1.23;;;8.10;97.20;;;;;;1712313;28;20198;-69
2022/11/20 09:29:54;;;;;;;2.60;1.63;;;8.10;97.20;;;;;;1713934;28;20206;-69
2022/11/20 09:30:45;;;;;;;1.30;1.20;;;8.00;97.20;;;;;;1713791;28;20476;-70
2022/11/20 09:31:36;;;;;;;1.30;1.20;;;8.00;97.20;;;;;;1714018;28;20434;-69
2022/11/20 09:32:27;;;;;;;2.00;1.48;;;8.00;97.20;;;;;;1714050;28;20282;-70
2022/11/20 09:33:19;;;;;;;1.27;1.00;;;8.00;97.20;;;;;;1713923;28;20301;-70
2022/11/20 09:34:09;;;;;;;1.35;1.10;;;8.00;97.20;;;;;;1714079;28;20205;-70
2022/11/20 09:35:01;;;;;;;1.63;1.30;;;8.00;97.20;;;;;;1713818;28;20202;-69
2022/11/20 09:35:53;;;;;;;1.42;0.93;;;8.00;97.20;;;;;;1714059;28;20214;-70
2022/11/20 09:36:44;;;;;;;1.42;1.33;;;8.00;97.20;;;;;;1713696;28;20202;-70
2022/11/20 09:37:37;;;;;;;1.40;1.30;;;8.00;97.20;;;;;;1713986;28;20285;-69
2022/11/20 09:38:29;;;;;;;1.50;1.40;;;8.00;97.20;;;;;;1713536;28;20239;-69
2022/11/20 09:39:20;;;;;;;1.10;1.00;;;8.10;97.20;;;;;;1713985;28;20206;-70
2022/11/20 09:40:20;;;;;;;1.30;1.20;;;8.10;97.20;;;;;;1713876;28;20202;-70
2022/11/20 09:41:37;;;;;;;1.65;1.55;;;8.10;97.20;;;;;;1713994;28;20194;-70
2022/11/20 09:42:37;;;;;;;1.23;1.13;;;8.10;97.20;;;;;;1713931;28;20205;-70
2022/11/20 09:43:41;;;;;;;1.25;1.15;;;8.10;97.20;;;;;;1714012;28;20186;-70
2022/11/20 09:44:49;;;;;;;1.55;1.45;;;8.10;97.20;;;;;;1714037;28;20210;-69
2022/11/20 09:46:00;;;;;;;1.33;1.20;;;8.10;97.20;;;;;;1711130;28;20198;-69
2022/11/20 09:46:57;;;;;;;1.10;1.00;;;8.10;97.20;;;;;;1707115;29;20203;-70
2022/11/20 09:48:02;;;;;;;2.47;1.02;;;8.00;97.20;;;;;;1707338;29;20209;-69
2022/11/20 09:49:07;;;;;;;1.33;1.20;;;8.00;97.20;;;;;;1706758;29;20210;-69
2022/11/20 09:50:14;;;;;;;1.40;1.15;;;8.00;97.20;;;;;;1707179;29;20195;-70
2022/11/20 09:51:14;;;;;;;2.03;1.17;;;8.00;97.20;;;;;;1707644;29;20568;-69
2022/11/20 09:52:16;;;;;;;1.35;1.25;;;8.10;97.20;;;;;;1707238;29;20222;-70
2022/11/20 09:53:26;;;;;;;1.23;1.10;;;8.10;97.20;;;;;;1707134;29;20199;-70
2022/11/20 09:54:18;;;;;;;1.05;0.95;;;8.10;97.20;;;;;;1707162;29;20211;-70
2022/11/20 09:55:13;;;;;;;1.10;1.00;;;8.10;97.20;;;;;;1707248;29;20235;-70
2022/11/20 09:56:04;;;;;;;2.28;1.15;;;8.10;97.20;;;;;;1707210;29;20222;-70
2022/11/20 09:57:00;;;;;;;1.33;1.23;;;8.10;97.20;;;;;;1706963;29;20608;-69
2022/11/20 09:57:52;;;;;;;1.30;1.20;;;8.10;97.20;;;;;;1707403;29;20194;-70
2022/11/20 09:58:47;;;;;;;1.40;1.30;;;8.10;97.20;;;;;;1706623;29;20202;-69
2022/11/20 09:59:41;;;;;;;1.85;1.20;;;8.10;97.20;;;;;;1707272;29;20567;-69
2022/11/20 10:00:35;;;;;;;1.20;1.10;;;8.10;97.20;;;;;;1707125;28;20258;-69
2022/11/20 10:01:30;;;;;;;4.25;1.33;;;8.10;97.20;;;;;;1708656;28;20207;-69
2022/11/20 10:02:29;;;;;;;1.45;1.10;;;8.10;97.20;;;;;;1713828;28;20579;-70
2022/11/20 10:03:35;;;;;;;1.40;1.30;;;8.10;97.20;;;;;;1713673;28;20194;-69
2022/11/20 10:04:32;;;;;;;1.83;1.38;;;8.10;97.20;;;;;;1707194;29;20197;-69
2022/11/20 10:05:26;;;;;;;2.45;1.52;;;8.20;97.20;;;;;;1707584;28;20213;-69
2022/11/20 10:06:22;;;;;;;1.42;1.10;;;8.20;97.20;;;;;;1713849;28;20224;-69
2022/11/20 10:07:17;;;;;;;1.30;1.20;;;8.20;97.20;;;;;;1713802;28;20648;-69
2022/11/20 10:08:17;;;;;;;1.55;1.42;;;8.20;97.20;;;;;;1713784;28;20212;-70
2022/11/20 10:09:20;;;;;;;1.45;1.20;;;8.20;97.20;;;;;;1713414;28;20209;-69
2022/11/20 10:10:17;;;;;;;1.40;1.30;;;8.20;97.20;;;;;;1713826;28;20233;-69
2022/11/20 10:11:16;;;;;;;1.50;1.40;;;8.20;97.20;;;;;;1713913;28;20263;-69
2022/11/20 10:12:16;;;;;;;1.25;1.15;;;8.20;97.20;;;;;;1713881;28;20201;-69
2022/11/20 10:13:20;;;;;;;1.20;1.10;;;8.20;97.20;;;;;;1713723;28;20225;-70
2022/11/20 10:14:24;;;;;;;1.35;1.25;;;8.20;97.20;;;;;;1713867;28;20202;-70
2022/11/20 10:15:31;;;;;;;1.30;1.20;;;8.20;97.20;;;;;;1713907;28;20194;-69
2022/11/20 10:16:33;;;;;;;3.20;1.38;;;8.20;97.20;;;;;;1713851;28;20580;-70
2022/11/20 10:17:42;;;;;;;1.30;1.20;;;8.20;97.20;;;;;;1713678;28;20272;-70
2022/11/20 10:18:48;;;;;;;1.30;1.20;;;8.20;97.20;;;;;;1713369;28;20695;-71
2022/11/20 10:19:51;;;;;;;1.67;1.40;;;8.20;97.20;;;;;;1713400;28;20234;-69
2022/11/20 10:20:48;;;;;;;1.40;1.00;;;8.30;97.20;;;;;;1713867;28;20640;-70
2022/11/20 10:21:51;;;;;;;1.45;1.20;;;8.20;97.20;;;;;;1713490;28;20193;-69
2022/11/20 10:22:54;;;;;;;0.90;0.80;;;8.30;97.20;;;;;;1713713;28;20190;-70
2022/11/20 10:24:05;;;;;;;1.30;1.20;;;8.30;97.20;;;;;;1713912;28;20556;-70
2022/11/20 10:25:04;;;;;;;1.50;1.10;;;8.20;97.20;;;;;;1713801;28;20213;-69
2022/11/20 10:26:02;;;;;;;0.95;0.85;;;8.20;97.20;;;;;;1713729;28;20282;-70
2022/11/20 10:27:02;;;;;;;1.00;0.90;;;8.20;97.20;;;;;;1713533;28;20209;-70
2022/11/20 10:28:16;;;;;;;1.17;1.08;;;8.20;97.20;;;;;;1713828;28;20329;-70
2022/11/20 10:29:12;;;;;;;1.25;1.15;;;8.10;97.20;;;;;;1713157;28;20213;-69
2022/11/20 10:30:09;;;;;;;1.33;1.20;;;8.10;97.20;;;;;;1713542;28;20201;-70
2022/11/20 10:31:04;;;;;;;1.08;0.98;;;8.10;97.20;;;;;;1713611;28;20237;-69
2022/11/20 10:32:01;;;;;;;0.80;0.80;;;8.10;97.20;;;;;;1713714;28;20206;-70
2022/11/20 10:32:54;;;;;;;1.63;1.05;;;8.10;97.20;;;;;;1714321;28;20615;-70
2022/11/20 10:33:49;;;;;;;1.00;0.90;;;8.20;97.20;;;;;;1715109;28;20194;-70
2022/11/20 10:34:47;;;;;;;1.00;0.80;;;8.20;97.20;;;;;;1715041;28;20214;-70
2022/11/20 10:35:43;;;;;;;1.10;1.00;;;8.20;97.20;;;;;;1715025;28;20289;-69
2022/11/20 10:36:38;;;;;;;1.00;0.90;;;8.20;97.20;;;;;;1714513;28;20201;-69
2022/11/20 10:37:32;;;;;;;1.10;1.00;;;8.20;97.20;;;;;;1708419;29;20202;-69
2022/11/20 10:38:30;;;;;;;1.10;0.98;;;8.30;97.20;;;;;;1712809;28;20236;-69
2022/11/20 10:39:29;;;;;;;1.42;1.00;;;8.30;97.20;;;;;;1715134;28;20182;-70
2022/11/20 10:40:28;;;;;;;0.82;0.82;;;8.30;97.20;;;;;;1714918;28;20190;-70
2022/11/20 10:41:27;;;;;;;1.10;0.80;;;8.30;97.20;;;;;;1715026;28;20209;-70
2022/11/20 10:42:35;;;;;;;0.90;0.80;;;8.30;97.20;;;;;;1715075;28;20206;-70
2022/11/20 10:43:33;;;;;;;0.85;0.70;;;8.30;97.20;;;;;;1715201;28;20236;-70
2022/11/20 10:45:46;;;;;;;0.98;0.88;;;8.30;97.20;;;;;;1715109;28;20193;-70
2022/11/20 10:46:40;;;;;;;0.82;0.82;;;8.30;97.20;;;;;;1714976;28;20260;-70